Time;durP1;ratioP1;P1;durP2;ratioP2;P2;SDS_P1;SDS_P2;PMS_P1;PMS_P2;Temp;Humidity;BMP_temperature;BMP_pressure;BME280_temperature;BME280_humidity;BME280_pressure;Samples;Min_cycle;Max_cycle;Signal;HPM_P1;HPM_P2
2023/11/01 00:02:09;;;;;;;3.63;1.58;;;;;;;21.38;46.24;100375.13;5020766;28;20357;-71
2023/11/01 00:04:34;;;;;;;3.15;1.70;;;;;;;21.39;46.11;100382.06;5004348;28;20041;-70
2023/11/01 00:06:59;;;;;;;2.25;1.65;;;;;;;21.37;46.00;100372.69;5018784;28;20049;-70
2023/11/01 00:09:25;;;;;;;1.35;1.25;;;;;;;21.39;45.91;100381.25;5024240;28;20045;-70
2023/11/01 00:11:51;;;;;;;1.88;1.55;;;;;;;21.31;46.04;100370.81;5022620;28;20045;-70
2023/11/01 00:14:16;;;;;;;2.95;1.63;;;;;;;21.28;46.04;100369.41;5022490;28;20070;-70
2023/11/01 00:16:42;;;;;;;1.50;1.40;;;;;;;21.33;46.16;100382.84;5024266;28;20364;-70
2023/11/01 00:19:08;;;;;;;1.85;1.52;;;;;;;21.24;46.31;100362.03;5022579;28;20050;-70
2023/11/01 00:21:33;;;;;;;1.90;1.60;;;;;;;21.32;46.28;100381.22;5019992;28;20046;-70
2023/11/01 00:23:59;;;;;;;4.15;2.00;;;;;;;21.31;46.08;100381.41;5022615;28;20045;-70
2023/11/01 00:26:24;;;;;;;4.13;2.00;;;;;;;21.31;46.06;100384.06;5021197;28;20045;-70
2023/11/01 00:28:54;;;;;;;1.92;1.60;;;;;;;21.31;46.33;100381.41;5026452;28;20052;-71
2023/11/01 00:31:19;;;;;;;2.80;1.73;;;;;;;21.22;46.34;100374.66;5033030;28;20044;-71
2023/11/01 00:33:45;;;;;;;2.00;1.70;;;;;;;21.28;46.15;100381.81;5027134;28;20033;-70
2023/11/01 00:36:10;;;;;;;3.47;1.90;;;;;;;21.24;46.05;100378.75;5023700;28;20040;-70
2023/11/01 00:38:36;;;;;;;1.70;1.60;;;;;;;21.24;46.05;100370.81;5029753;28;20045;-70
2023/11/01 00:41:03;;;;;;;2.28;1.70;;;;;;;21.20;46.15;100366.91;5020366;28;20044;-71
2023/11/01 00:43:29;;;;;;;2.60;1.80;;;;;;;21.24;46.15;100376.13;5024565;28;20511;-71
2023/11/01 00:45:55;;;;;;;1.98;1.77;;;;;;;21.22;46.30;100364.06;5020591;28;20590;-71
2023/11/01 00:48:20;;;;;;;3.25;1.70;;;;;;;21.22;46.11;100374.66;5025071;28;20048;-70
2023/11/01 00:50:46;;;;;;;2.72;1.98;;;;;;;21.21;46.32;100365.91;5017814;28;20044;-70
2023/11/01 00:53:12;;;;;;;2.65;1.70;;;;;;;21.22;46.37;100372.00;5052165;28;20052;-70
2023/11/01 00:55:37;;;;;;;2.13;1.90;;;;;;;21.19;46.50;100359.16;5021527;28;20707;-70
2023/11/01 00:58:03;;;;;;;3.05;1.80;;;;;;;21.14;46.26;100357.09;5024904;28;20049;-70
2023/11/01 01:00:28;;;;;;;2.20;1.60;;;;;;;21.19;46.31;100361.81;5020029;28;20045;-70
2023/11/01 01:02:54;;;;;;;2.40;1.80;;;;;;;21.15;46.38;100348.13;5022350;28;20034;-71
2023/11/01 01:05:20;;;;;;;3.35;2.05;;;;;;;21.05;46.33;100335.31;5023010;28;20511;-70
2023/11/01 01:07:46;;;;;;;1.80;1.65;;;;;;;21.17;46.40;100355.88;5023661;28;20048;-71
2023/11/01 01:10:11;;;;;;;2.90;1.92;;;;;;;21.06;46.37;100339.56;5023735;28;20037;-71
2023/11/01 01:12:37;;;;;;;3.30;2.10;;;;;;;21.11;46.41;100346.91;5018328;28;20483;-70
2023/11/01 01:15:03;;;;;;;4.40;1.83;;;;;;;21.15;46.22;100345.50;5017355;28;20034;-71
2023/11/01 01:17:28;;;;;;;1.63;1.50;;;;;;;21.15;46.32;100348.13;5057623;28;20178;-70
2023/11/01 01:19:54;;;;;;;2.15;1.70;;;;;;;20.94;46.29;100321.81;5021606;28;20045;-70
2023/11/01 01:22:21;;;;;;;2.38;1.90;;;;;;;20.96;46.38;100320.59;5023183;28;20034;-70
2023/11/01 01:24:47;;;;;;;2.70;2.00;;;;;;;21.13;46.47;100336.94;5016608;28;20087;-70
2023/11/01 01:27:13;;;;;;;2.65;1.95;;;;;;;21.08;46.18;100320.84;5025603;28;20508;-70
2023/11/01 01:29:39;;;;;;;2.58;1.75;;;;;;;21.07;46.41;100320.03;5018955;28;20051;-70
2023/11/01 01:32:04;;;;;;;2.40;1.65;;;;;;;21.04;46.34;100322.25;5028051;28;20037;-70
2023/11/01 01:34:30;;;;;;;2.00;1.80;;;;;;;21.08;46.21;100328.78;5024205;28;20033;-70
2023/11/01 01:36:55;;;;;;;2.30;1.65;;;;;;;21.08;46.52;100318.19;5018669;28;20056;-70
2023/11/01 01:39:21;;;;;;;2.10;1.90;;;;;;;21.08;46.43;100323.50;5019397;28;20052;-70
2023/11/01 01:41:47;;;;;;;2.28;1.67;;;;;;;20.99;46.32;100303.50;5021312;28;20037;-71
2023/11/01 01:44:13;;;;;;;2.53;1.85;;;;;;;21.03;46.42;100305.56;5029367;28;20561;-71
2023/11/01 01:46:40;;;;;;;2.30;1.90;;;;;;;21.07;46.32;100311.28;5025732;28;20144;-70
2023/11/01 01:49:06;;;;;;;2.30;1.70;;;;;;;21.05;46.50;100300.88;5024149;28;20390;-70
2023/11/01 01:51:34;;;;;;;2.72;1.90;;;;;;;21.03;46.14;100294.16;5016924;28;20044;-70
2023/11/01 01:54:00;;;;;;;3.25;2.10;;;;;;;21.05;46.25;100292.13;5023967;28;20056;-70
2023/11/01 01:56:26;;;;;;;2.38;2.03;;;;;;;21.03;46.33;100289.69;5029611;28;20048;-70
2023/11/01 01:58:52;;;;;;;3.40;2.10;;;;;;;21.03;46.48;100283.56;5023608;28;20041;-70
2023/11/01 02:01:19;;;;;;;2.75;2.10;;;;;;;21.01;46.33;100283.78;5018769;28;20040;-70
2023/11/01 02:03:45;;;;;;;3.83;2.25;;;;;;;20.93;46.44;100273.34;5054726;28;20071;-70
2023/11/01 02:06:10;;;;;;;3.05;2.15;;;;;;;20.93;46.51;100273.34;5021230;28;20535;-70
2023/11/01 02:08:36;;;;;;;3.03;2.00;;;;;;;20.78;46.33;100238.31;5004186;28;20084;-70
2023/11/01 02:11:03;;;;;;;3.45;2.22;;;;;;;20.95;46.51;100263.38;5021379;28;20037;-70
2023/11/01 02:13:29;;;;;;;3.72;2.40;;;;;;;20.99;46.65;100274.38;5020411;28;20048;-69
2023/11/01 02:15:54;;;;;;;2.65;1.90;;;;;;;20.99;46.64;100269.91;5016447;28;20025;-71
2023/11/01 02:18:20;;;;;;;2.55;2.00;;;;;;;20.99;46.59;100269.09;5023064;28;20057;-70
2023/11/01 02:20:47;;;;;;;3.20;1.95;;;;;;;20.99;46.63;100261.97;5024236;28;20854;-70
2023/11/01 02:23:14;;;;;;;3.75;2.20;;;;;;;20.98;46.63;100260.31;5003702;28;20080;-71
2023/11/01 02:25:40;;;;;;;2.70;2.28;;;;;;;20.97;46.37;100252.59;5026170;28;20033;-70
2023/11/01 02:28:08;;;;;;;3.10;2.33;;;;;;;20.97;46.69;100257.88;5021498;28;20683;-70
2023/11/01 02:30:34;;;;;;;3.60;2.13;;;;;;;20.97;46.48;100252.59;5025898;28;20783;-70
2023/11/01 02:33:00;;;;;;;2.65;2.00;;;;;;;20.96;46.45;100250.97;5020430;28;20037;-70
2023/11/01 02:35:25;;;;;;;3.05;2.22;;;;;;;20.92;46.30;100239.97;5022019;28;20040;-70
2023/11/01 02:37:51;;;;;;;2.83;2.10;;;;;;;20.95;46.52;100249.34;5021994;28;20045;-70
2023/11/01 02:40:17;;;;;;;3.83;2.17;;;;;;;20.88;46.66;100228.16;5030084;28;20932;-70
2023/11/01 02:42:44;;;;;;;2.83;2.35;;;;;;;20.92;46.44;100237.31;5022109;28;20046;-70
2023/11/01 02:45:11;;;;;;;2.97;2.30;;;;;;;20.87;46.55;100223.88;5020917;28;20044;-70
2023/11/01 02:47:41;;;;;;;3.15;2.20;;;;;;;20.91;46.60;100225.09;5014417;28;20102;-70
2023/11/01 02:50:09;;;;;;;5.22;2.50;;;;;;;20.87;46.63;100221.25;5041507;28;20118;-70
2023/11/01 02:52:35;;;;;;;2.40;2.20;;;;;;;20.91;46.45;100222.47;5027371;28;20040;-70
2023/11/01 02:55:09;;;;;;;2.83;2.35;;;;;;;20.90;46.47;100218.19;5054556;28;20072;-70
2023/11/01 02:57:34;;;;;;;2.92;2.22;;;;;;;20.91;46.41;100222.47;5022350;28;20552;-71
2023/11/01 03:00:00;;;;;;;3.90;2.72;;;;;;;20.92;46.68;100215.34;5021108;28;20052;-70
2023/11/01 03:02:26;;;;;;;3.70;2.33;;;;;;;20.91;46.51;100209.22;5025328;28;20051;-69
2023/11/01 03:04:52;;;;;;;3.00;2.33;;;;;;;20.92;46.52;100215.34;5025348;28;20045;-70
2023/11/01 03:07:18;;;;;;;3.90;2.30;;;;;;;20.94;46.33;100208.00;5032988;28;20024;-70
2023/11/01 03:09:43;;;;;;;2.72;2.20;;;;;;;20.92;46.32;100210.03;5025985;28;20103;-70
2023/11/01 03:12:09;;;;;;;3.50;2.40;;;;;;;20.82;46.30;100189.25;5020442;28;20049;-70
2023/11/01 03:14:38;;;;;;;2.50;2.03;;;;;;;20.88;46.57;100199.06;5019749;28;20036;-70
2023/11/01 03:17:04;;;;;;;3.38;2.10;;;;;;;20.89;46.48;100200.69;5025381;28;20562;-70
2023/11/01 03:19:30;;;;;;;2.72;2.28;;;;;;;20.90;46.56;100197.00;5022649;28;20057;-71
2023/11/01 03:21:56;;;;;;;2.90;2.40;;;;;;;20.79;46.51;100176.44;5027853;28;20131;-70
2023/11/01 03:24:22;;;;;;;2.85;2.13;;;;;;;20.88;46.35;100190.28;5024236;28;20045;-70
2023/11/01 03:26:47;;;;;;;3.03;2.30;;;;;;;20.80;46.54;100181.50;5023468;28;20053;-70
2023/11/01 03:29:13;;;;;;;2.63;2.20;;;;;;;20.89;46.37;100186.63;5023381;28;20047;-70
2023/11/01 03:31:38;;;;;;;3.13;2.33;;;;;;;20.89;46.40;100183.97;5002975;28;20048;-70
2023/11/01 03:34:04;;;;;;;3.35;2.33;;;;;;;20.84;46.51;100181.94;5025964;28;20081;-70
2023/11/01 03:36:30;;;;;;;3.28;2.40;;;;;;;20.82;46.46;100176.00;5026265;28;20648;-70
2023/11/01 03:38:55;;;;;;;2.75;2.30;;;;;;;20.82;46.59;100176.00;5025529;28;20043;-70
2023/11/01 03:41:21;;;;;;;2.85;2.42;;;;;;;20.89;46.48;100178.69;5026585;28;20878;-70
2023/11/01 03:43:47;;;;;;;3.58;2.40;;;;;;;20.86;46.41;100177.25;5018990;28;20041;-70
2023/11/01 03:46:12;;;;;;;2.92;2.63;;;;;;;20.81;46.40;100169.91;5019551;28;20577;-70
2023/11/01 03:48:38;;;;;;;3.45;2.70;;;;;;;20.86;46.64;100177.25;5028975;28;20033;-70
2023/11/01 03:51:04;;;;;;;3.45;2.25;;;;;;;20.85;46.35;100175.63;5027191;28;20041;-70
2023/11/01 03:53:30;;;;;;;3.50;2.33;;;;;;;20.83;46.62;100177.69;5025212;28;20057;-70
2023/11/01 03:55:56;;;;;;;3.10;2.13;;;;;;;20.83;46.56;100180.31;5023625;28;20562;-70
2023/11/01 03:58:22;;;;;;;2.58;2.15;;;;;;;20.79;46.42;100174.59;5026919;28;20045;-70
2023/11/01 04:00:48;;;;;;;2.72;2.25;;;;;;;20.85;46.38;100180.13;5023654;28;20711;-70
2023/11/01 04:03:13;;;;;;;2.63;2.35;;;;;;;20.83;46.45;100180.31;5026972;28;20045;-70
2023/11/01 04:05:39;;;;;;;3.95;2.72;;;;;;;20.71;46.36;100155.47;5027552;28;20037;-70
2023/11/01 04:08:05;;;;;;;2.65;2.38;;;;;;;20.81;46.54;100169.09;5027890;28;20033;-70
2023/11/01 04:10:31;;;;;;;2.63;2.38;;;;;;;20.77;46.44;100165.22;5027332;28;20069;-70
2023/11/01 04:12:56;;;;;;;3.33;2.53;;;;;;;20.80;46.44;100168.28;5033959;28;20042;-70
2023/11/01 04:15:22;;;;;;;2.60;2.38;;;;;;;20.81;46.60;100172.56;5019527;28;20510;-70
2023/11/01 04:17:49;;;;;;;3.65;2.50;;;;;;;20.80;46.41;100162.19;5023913;28;20058;-70
2023/11/01 04:20:15;;;;;;;2.67;2.00;;;;;;;20.80;46.63;100165.63;5024430;28;20047;-70
2023/11/01 04:22:41;;;;;;;3.47;2.35;;;;;;;20.80;46.57;100156.88;5018777;28;20148;-71
2023/11/01 04:25:11;;;;;;;4.30;2.60;;;;;;;20.79;46.54;100161.38;5021756;28;20563;-70
2023/11/01 04:27:39;;;;;;;3.47;2.70;;;;;;;20.75;46.53;100148.75;5028129;28;20038;-70
2023/11/01 04:30:09;;;;;;;3.55;2.40;;;;;;;20.59;46.50;100125.31;5032169;28;20501;-69
2023/11/01 04:32:35;;;;;;;;;;;;;;;20.78;46.64;100156.28;5023600;28;20041;-70
2023/11/01 04:35:01;;;;;;;3.17;2.20;;;;;;;20.72;46.59;100141.22;5025088;28;19955;-70
2023/11/01 04:37:27;;;;;;;2.65;2.22;;;;;;;20.73;46.47;100145.50;5025696;28;20121;-70
2023/11/01 04:39:52;;;;;;;2.95;2.35;;;;;;;20.77;46.51;100160.75;5025129;28;20482;-70
2023/11/01 04:42:18;;;;;;;2.70;2.40;;;;;;;20.77;46.47;100147.53;5019429;28;20044;-70
2023/11/01 04:44:44;;;;;;;4.80;2.80;;;;;;;20.76;46.44;100151.19;5024131;28;20052;-70
2023/11/01 04:47:10;;;;;;;3.00;2.20;;;;;;;20.76;46.41;100145.09;5020698;28;20044;-70
2023/11/01 04:49:37;;;;;;;2.92;2.42;;;;;;;20.76;46.66;100148.53;5023016;28;20113;-69
2023/11/01 04:52:03;;;;;;;2.58;2.20;;;;;;;20.77;46.48;100152.81;5026104;28;20115;-70
2023/11/01 04:54:29;;;;;;;3.83;2.70;;;;;;;20.70;46.47;100146.72;5020153;28;20525;-70
2023/11/01 04:56:54;;;;;;;3.20;2.53;;;;;;;20.67;46.57;100135.72;5023274;28;20173;-70
2023/11/01 04:59:21;;;;;;;2.78;2.45;;;;;;;20.74;46.59;100142.63;5020837;28;20046;-70
2023/11/01 05:01:47;;;;;;;2.60;2.08;;;;;;;20.65;46.71;100129.81;5017653;28;20041;-70
2023/11/01 05:04:13;;;;;;;3.05;2.50;;;;;;;20.68;46.57;100126.78;5029908;28;20051;-70
2023/11/01 05:06:39;;;;;;;3.97;2.38;;;;;;;20.71;46.68;100131.66;5007128;28;20040;-70
2023/11/01 05:09:05;;;;;;;3.53;2.53;;;;;;;20.71;46.67;100126.34;5021375;28;20037;-70
2023/11/01 05:11:31;;;;;;;3.85;2.40;;;;;;;20.72;46.52;100125.34;5023051;28;20256;-70
2023/11/01 05:13:56;;;;;;;3.38;2.38;;;;;;;20.73;46.55;100125.13;5028408;28;20115;-70
2023/11/01 05:16:22;;;;;;;3.33;2.50;;;;;;;20.72;46.60;100123.50;5021044;28;20065;-71
2023/11/01 05:18:49;;;;;;;3.40;2.45;;;;;;;20.69;46.50;100123.09;5024154;28;20041;-70
2023/11/01 05:21:15;;;;;;;3.88;2.72;;;;;;;20.69;46.57;100115.97;5023369;28;20637;-69
2023/11/01 05:23:41;;;;;;;3.88;2.50;;;;;;;20.72;46.47;100118.22;5021665;28;20045;-70
2023/11/01 05:26:14;;;;;;;3.15;2.80;;;;;;;20.67;46.63;100115.38;5027156;28;20041;-70
2023/11/01 05:28:40;;;;;;;3.00;2.45;;;;;;;20.70;46.74;100117.63;5029654;28;20064;-70
2023/11/01 05:31:06;;;;;;;3.67;2.42;;;;;;;20.62;46.70;100101.91;5022282;28;20475;-70
2023/11/01 05:33:32;;;;;;;3.72;2.28;;;;;;;20.70;46.70;100109.66;5021578;28;20495;-70
2023/11/01 05:35:57;;;;;;;4.90;2.60;;;;;;;20.67;46.70;100103.97;5022785;28;20476;-70
2023/11/01 05:38:25;;;;;;;3.58;2.70;;;;;;;20.71;46.59;100107.84;5028349;28;20072;-70
2023/11/01 05:40:51;;;;;;;2.60;2.40;;;;;;;20.70;46.63;100104.38;5015830;28;20056;-70
2023/11/01 05:43:17;;;;;;;3.42;2.50;;;;;;;20.67;46.47;100088.09;5031238;28;20045;-70
2023/11/01 05:45:42;;;;;;;3.28;2.47;;;;;;;20.70;46.58;100098.28;5026650;28;20041;-70
2023/11/01 05:48:08;;;;;;;2.83;2.40;;;;;;;20.69;46.66;100105.41;5028203;28;20038;-70
2023/11/01 05:50:34;;;;;;;3.00;2.50;;;;;;;20.67;46.56;100101.34;5020251;28;20041;-70
2023/11/01 05:53:02;;;;;;;2.90;2.42;;;;;;;20.66;46.48;100095.22;5040635;28;20696;-70
2023/11/01 05:55:28;;;;;;;3.03;2.40;;;;;;;20.63;46.74;100089.50;5027601;28;20056;-70
2023/11/01 05:57:53;;;;;;;3.80;2.90;;;;;;;20.62;46.74;100087.88;5033234;28;20029;-70
2023/11/01 06:00:19;;;;;;;4.50;2.90;;;;;;;20.58;46.72;100082.19;5034172;28;20866;-70
2023/11/01 06:02:45;;;;;;;3.67;2.60;;;;;;;20.67;46.65;100096.03;5030042;28;20041;-69
2023/11/01 06:05:10;;;;;;;2.90;2.50;;;;;;;20.57;46.63;100072.63;5020148;28;20033;-70
2023/11/01 06:07:36;;;;;;;3.55;2.42;;;;;;;20.56;46.61;100078.94;5030562;28;20045;-70
2023/11/01 06:10:01;;;;;;;3.20;2.60;;;;;;;20.34;46.65;100035.97;5014796;28;20083;-70
2023/11/01 06:12:27;;;;;;;4.43;2.88;;;;;;;20.67;46.71;100088.91;5025230;28;20029;-70
2023/11/01 06:14:53;;;;;;;2.80;2.42;;;;;;;20.64;46.77;100081.38;5018322;28;20029;-70
2023/11/01 06:17:19;;;;;;;3.75;2.55;;;;;;;20.69;46.68;100086.06;5030102;28;20033;-70
2023/11/01 06:19:45;;;;;;;4.68;2.70;;;;;;;20.49;46.59;100057.78;5012018;28;20053;-70
2023/11/01 06:22:10;;;;;;;2.95;2.47;;;;;;;20.64;46.57;100073.44;5027693;28;20037;-70
2023/11/01 06:24:36;;;;;;;2.83;2.53;;;;;;;20.67;46.58;100080.97;5025038;28;20099;-70
2023/11/01 06:27:02;;;;;;;2.55;2.28;;;;;;;20.68;46.58;100079.97;5035471;28;20116;-70
2023/11/01 06:29:29;;;;;;;4.25;2.40;;;;;;;20.66;46.63;100071.41;5033207;28;20056;-70
2023/11/01 06:31:55;;;;;;;3.60;2.72;;;;;;;20.69;46.61;100081.59;5023642;28;20199;-70
2023/11/01 06:34:21;;;;;;;3.35;2.67;;;;;;;20.68;46.63;100077.31;5026586;28;20053;-70
2023/11/01 06:36:46;;;;;;;3.00;2.30;;;;;;;20.68;46.61;100076.50;5028636;28;20044;-70
2023/11/01 06:39:12;;;;;;;3.45;2.30;;;;;;;20.69;46.65;100070.19;5032131;28;20640;-70
2023/11/01 06:41:37;;;;;;;2.58;2.30;;;;;;;20.66;46.80;100062.66;5025595;28;20046;-70
2023/11/01 06:44:05;;;;;;;2.53;2.25;;;;;;;20.69;46.60;100067.53;5028670;28;20041;-70
2023/11/01 06:46:31;;;;;;;4.13;2.65;;;;;;;20.67;46.59;100067.75;5024050;28;20143;-70
2023/11/01 06:48:57;;;;;;;2.67;2.38;;;;;;;20.68;46.46;100061.44;5028423;28;20120;-70
2023/11/01 06:51:22;;;;;;;2.83;2.50;;;;;;;20.64;46.57;100057.56;5028224;28;20037;-70
2023/11/01 06:53:48;;;;;;;3.38;2.17;;;;;;;20.69;46.71;100060.44;5007885;28;20461;-70
2023/11/01 06:56:14;;;;;;;4.10;2.78;;;;;;;20.67;46.54;100051.88;5029870;28;20037;-70
2023/11/01 06:58:39;;;;;;;3.25;2.30;;;;;;;20.68;46.72;100061.44;5021801;28;20038;-70
2023/11/01 07:01:09;;;;;;;2.83;2.35;;;;;;;20.67;46.71;100054.53;5027236;28;20067;-70
2023/11/01 07:03:34;;;;;;;3.42;2.45;;;;;;;20.69;46.75;100055.13;5030776;28;20037;-70
2023/11/01 07:06:00;;;;;;;3.20;2.60;;;;;;;20.68;46.82;100060.63;5018564;28;20095;-70
2023/11/01 07:08:26;;;;;;;2.90;2.30;;;;;;;20.67;46.81;100067.75;5033713;28;20049;-70
2023/11/01 07:10:51;;;;;;;4.00;2.38;;;;;;;20.68;46.61;100064.09;5027536;28;20052;-70
2023/11/01 07:13:16;;;;;;;4.30;2.30;;;;;;;20.76;46.44;100058.59;5029159;28;20037;-70
2023/11/01 07:15:42;;;;;;;3.13;2.30;;;;;;;20.89;46.20;100059.59;5028378;28;20037;-70
2023/11/01 07:18:07;;;;;;;2.80;2.20;;;;;;;21.17;45.96;100057.50;5025240;28;20038;-69
2023/11/01 07:20:34;;;;;;;2.70;2.30;;;;;;;21.48;45.22;100040.97;5024153;28;20053;-69
2023/11/01 07:23:00;;;;;;;2.55;2.33;;;;;;;21.67;45.14;100050.66;5025928;28;20037;-70
2023/11/01 07:25:25;;;;;;;2.85;2.35;;;;;;;21.56;44.75;100042.59;5024467;28;20049;-70
2023/11/01 07:27:51;;;;;;;3.38;2.22;;;;;;;21.52;45.42;100039.50;5030043;28;20048;-70
2023/11/01 07:30:16;;;;;;;2.88;2.05;;;;;;;21.50;45.75;100030.97;5022836;28;20487;-70
2023/11/01 07:32:44;;;;;;;2.30;2.10;;;;;;;21.46;45.86;100028.94;5023477;28;20411;-70
2023/11/01 07:35:10;;;;;;;2.15;1.90;;;;;;;21.23;45.63;100002.94;5021111;28;20701;-70
2023/11/01 07:37:35;;;;;;;2.63;2.42;;;;;;;21.31;45.58;100015.97;5028707;28;20037;-70
2023/11/01 07:40:01;;;;;;;2.70;2.35;;;;;;;21.30;45.97;100020.44;5020909;28;20148;-70
2023/11/01 07:42:26;;;;;;;2.40;2.20;;;;;;;21.30;46.22;100027.56;5020139;28;20044;-70
2023/11/01 07:44:52;;;;;;;3.70;2.30;;;;;;;21.22;46.33;100011.91;5027920;28;20040;-70
2023/11/01 07:47:18;;;;;;;2.30;2.00;;;;;;;21.26;46.33;100024.53;5018433;28;20438;-70
2023/11/01 07:49:43;;;;;;;2.88;2.40;;;;;;;21.25;46.21;100020.25;5020796;28;20554;-70
2023/11/01 07:52:09;;;;;;;4.03;2.28;;;;;;;21.24;46.41;100023.94;5022518;28;20488;-70
2023/11/01 07:54:34;;;;;;;2.72;2.00;;;;;;;21.24;46.08;100020.44;5028724;28;20515;-70
2023/11/01 07:57:00;;;;;;;2.70;2.30;;;;;;;21.17;46.37;100016.97;5023695;28;20037;-70
2023/11/01 07:59:27;;;;;;;2.78;2.33;;;;;;;20.99;46.37;99986.69;5006320;28;20053;-70
2023/11/01 08:01:54;;;;;;;2.35;2.15;;;;;;;21.21;46.22;100015.56;5020805;28;20052;-70
2023/11/01 08:04:20;;;;;;;2.25;2.05;;;;;;;21.19;46.42;100018.44;5028242;28;20617;-70
2023/11/01 08:06:46;;;;;;;3.35;2.00;;;;;;;21.20;46.28;100014.75;5020492;28;20124;-70
2023/11/01 08:09:13;;;;;;;2.10;1.80;;;;;;;21.17;46.47;100003.75;5026765;28;20048;-70
2023/11/01 08:11:38;;;;;;;4.57;2.65;;;;;;;21.11;46.47;99994.81;5019316;28;20041;-70
2023/11/01 08:14:06;;;;;;;2.95;2.35;;;;;;;21.18;46.53;100000.88;5024300;28;20075;-71
2023/11/01 08:16:31;;;;;;;2.92;2.50;;;;;;;21.17;46.59;100003.75;5021637;28;20041;-71
2023/11/01 08:18:57;;;;;;;3.50;2.20;;;;;;;21.18;46.56;100003.53;5023143;28;20079;-71
2023/11/01 08:21:22;;;;;;;2.63;2.15;;;;;;;21.17;46.36;99998.44;5024743;28;20102;-71
2023/11/01 08:23:48;;;;;;;3.67;2.30;;;;;;;21.15;46.50;99987.25;5015988;28;20053;-71
2023/11/01 08:26:20;;;;;;;2.65;2.35;;;;;;;21.13;46.31;99985.63;5016992;28;20098;-71
2023/11/01 08:28:46;;;;;;;6.07;2.30;;;;;;;21.17;46.53;99993.97;5021005;28;20127;-70
2023/11/01 08:31:12;;;;;;;2.90;1.98;;;;;;;21.17;46.46;99993.16;5026263;28;20049;-71
2023/11/01 08:33:39;;;;;;;4.57;2.13;;;;;;;21.15;46.64;99989.91;5026124;28;20041;-71
2023/11/01 08:36:05;;;;;;;2.10;1.85;;;;;;;21.17;46.66;99993.16;5018881;28;20041;-71
2023/11/01 08:38:31;;;;;;;2.17;1.90;;;;;;;21.09;46.47;99981.78;5022748;28;20535;-71
2023/11/01 08:40:57;;;;;;;3.63;2.00;;;;;;;21.16;46.52;99984.41;5016464;28;20048;-71
2023/11/01 08:43:22;;;;;;;2.92;2.08;;;;;;;21.16;46.54;99989.69;5027240;28;20045;-72
2023/11/01 08:45:48;;;;;;;2.70;2.30;;;;;;;21.13;46.64;99987.47;5019684;28;20750;-71
2023/11/01 08:48:13;;;;;;;2.08;1.88;;;;;;;21.14;46.53;99986.44;5016800;28;20037;-70
2023/11/01 08:50:39;;;;;;;2.05;1.90;;;;;;;21.10;46.43;99980.75;5023292;28;20041;-71
2023/11/01 08:53:06;;;;;;;3.10;2.20;;;;;;;21.12;46.50;99989.31;5015578;28;20044;-70
2023/11/01 08:55:31;;;;;;;2.20;2.00;;;;;;;21.13;46.32;99980.34;5020879;28;20125;-70
2023/11/01 08:57:57;;;;;;;2.40;2.00;;;;;;;21.12;46.19;99978.72;5020147;28;20041;-71
2023/11/01 09:00:22;;;;;;;2.30;2.10;;;;;;;21.13;46.57;99980.34;5026008;28;20550;-71
2023/11/01 09:02:48;;;;;;;2.72;2.00;;;;;;;21.12;46.61;99980.56;5021925;28;20756;-71
2023/11/01 09:05:15;;;;;;;2.97;1.85;;;;;;;21.11;46.48;99979.75;5028013;28;20056;-71
2023/11/01 09:07:41;;;;;;;2.15;1.70;;;;;;;21.04;46.33;99970.19;5020904;28;20095;-70
2023/11/01 09:10:10;;;;;;;2.65;2.10;;;;;;;21.14;46.31;99981.16;5020650;28;20044;-71
2023/11/01 09:12:36;;;;;;;2.45;1.83;;;;;;;21.09;46.33;99971.19;5020982;28;20037;-70
2023/11/01 09:15:03;;;;;;;1.98;1.60;;;;;;;21.06;46.96;99973.44;5021995;28;20496;-72
2023/11/01 09:17:29;;;;;;;2.42;1.80;;;;;;;21.08;46.98;99972.22;5016377;28;20660;-74
2023/11/01 09:19:55;;;;;;;3.92;2.13;;;;;;;21.13;46.94;99969.75;5029531;28;20168;-74
2023/11/01 09:22:20;;;;;;;3.53;1.70;;;;;;;21.15;46.85;99979.31;5016528;28;20040;-74
2023/11/01 09:24:46;;;;;;;1.90;1.73;;;;;;;21.14;46.84;99973.22;5026008;28;20500;-73
2023/11/01 09:27:12;;;;;;;2.25;2.05;;;;;;;21.10;46.74;99966.72;5030667;28;20499;-74
2023/11/01 09:29:37;;;;;;;2.22;1.80;;;;;;;21.14;46.58;99978.50;5017943;28;20383;-73
2023/11/01 09:32:03;;;;;;;1.80;1.70;;;;;;;21.11;46.55;99961.22;5021564;28;20037;-74
2023/11/01 09:34:28;;;;;;;2.75;1.80;;;;;;;21.16;46.53;99979.09;5024466;28;20411;-74
2023/11/01 09:36:54;;;;;;;2.08;1.65;;;;;;;21.17;46.48;99971.97;5024186;28;20829;-73
2023/11/01 09:39:20;;;;;;;2.33;1.58;;;;;;;21.17;46.51;99979.91;5029798;28;20035;-74
2023/11/01 09:41:50;;;;;;;1.98;1.77;;;;;;;21.06;46.48;99966.31;5019851;28;20533;-74
2023/11/01 09:44:17;;;;;;;1.80;1.70;;;;;;;21.18;46.67;99978.91;5022250;28;20037;-73
2023/11/01 09:46:45;;;;;;;2.20;1.58;;;;;;;21.18;46.69;99976.25;5021427;28;20768;-74
2023/11/01 09:49:11;;;;;;;2.70;1.60;;;;;;;21.19;46.61;99983.19;5023058;28;20057;-73
2023/11/01 09:51:38;;;;;;;1.63;1.38;;;;;;;21.21;46.62;99978.50;5022230;28;20833;-73
2023/11/01 09:54:08;;;;;;;2.63;1.83;;;;;;;21.17;46.61;99969.31;5019838;28;20042;-73
2023/11/01 09:56:44;;;;;;;2.25;1.60;;;;;;;21.19;46.35;99978.72;5023348;28;20124;-74
2023/11/01 09:59:10;;;;;;;2.30;1.63;;;;;;;21.20;46.57;99976.88;5027816;28;20128;-73
2023/11/01 10:01:37;;;;;;;2.22;1.88;;;;;;;21.18;46.36;99977.06;5028346;28;20048;-73
2023/11/01 10:04:03;;;;;;;1.95;1.80;;;;;;;21.21;46.58;99979.31;5026665;28;20106;-74
2023/11/01 10:06:29;;;;;;;1.75;1.55;;;;;;;21.18;46.36;99970.94;5024699;28;20037;-74
2023/11/01 10:08:55;;;;;;;2.20;2.00;;;;;;;21.21;46.57;99965.25;5028472;28;20037;-73
2023/11/01 10:11:24;;;;;;;1.70;1.60;;;;;;;20.99;46.59;99932.94;5022987;28;20379;-73
2023/11/01 10:13:49;;;;;;;1.70;1.60;;;;;;;21.16;46.50;99957.13;5031371;28;20049;-74
2023/11/01 10:16:15;;;;;;;1.63;1.52;;;;;;;21.22;46.70;99956.28;5033374;28;20052;-74
2023/11/01 10:18:42;;;;;;;2.67;1.55;;;;;;;21.22;46.31;99943.88;5021838;28;20038;-74
2023/11/01 10:21:08;;;;;;;1.50;1.40;;;;;;;21.21;46.34;99941.44;5026705;28;20029;-73
2023/11/01 10:23:35;;;;;;;1.33;1.23;;;;;;;21.24;46.45;99941.00;5032877;28;20572;-73
2023/11/01 10:26:01;;;;;;;1.77;1.55;;;;;;;21.20;46.63;99940.63;5029233;28;20041;-73
2023/11/01 10:28:27;;;;;;;1.50;1.40;;;;;;;21.23;46.57;99934.09;5022246;28;22031;-74
2023/11/01 10:30:53;;;;;;;3.45;1.67;;;;;;;21.24;46.63;99935.72;5026591;28;20164;-73
2023/11/01 10:33:21;;;;;;;1.55;1.45;;;;;;;21.20;46.65;99930.03;5021098;28;20041;-73
2023/11/01 10:36:13;;;;;;;1.67;1.58;;;;;;;21.20;46.35;99935.31;5022577;28;20399;-72
2023/11/01 10:38:40;;;;;;;1.60;1.50;;;;;;;21.04;46.62;99904.84;5022916;28;20287;-73
2023/11/01 10:41:06;;;;;;;2.50;1.65;;;;;;;21.24;46.53;99933.06;5022287;28;20520;-72
2023/11/01 10:43:32;;;;;;;1.70;1.60;;;;;;;21.24;46.40;99918.03;5025355;28;20041;-72
2023/11/01 10:45:59;;;;;;;4.75;1.90;;;;;;;21.24;46.25;99917.19;5022293;28;20072;-72
2023/11/01 10:48:25;;;;;;;3.08;1.70;;;;;;;21.24;46.61;99917.19;5022871;28;20036;-72
2023/11/01 10:50:52;;;;;;;3.30;1.63;;;;;;;21.24;46.33;99910.06;5024448;28;20045;-72
2023/11/01 10:53:22;;;;;;;1.60;1.50;;;;;;;21.21;46.51;99896.44;5025159;28;20032;-73
2023/11/01 10:55:52;;;;;;;1.70;1.60;;;;;;;21.24;46.57;99903.94;5024855;28;20068;-73
2023/11/01 10:58:27;;;;;;;1.70;1.60;;;;;;;21.20;46.58;99892.16;5027915;28;20382;-73
2023/11/01 11:01:07;;;;;;;1.65;1.55;;;;;;;21.22;46.52;99888.28;5031078;28;20551;-73
2023/11/01 11:04:14;;;;;;;2.10;1.90;;;;;;;21.23;46.72;99884.59;5032457;28;20116;-73
2023/11/01 11:06:56;;;;;;;1.98;1.65;;;;;;;21.25;46.50;99879.94;5022233;28;20748;-73
2023/11/01 11:09:24;;;;;;;1.88;1.70;;;;;;;20.99;47.26;99872.88;5020403;28;20057;-74
2023/11/01 11:12:13;;;;;;;2.88;1.80;;;;;;;21.25;46.70;99871.97;5023419;28;20068;-77
2023/11/01 11:14:39;;;;;;;1.63;1.52;;;;;;;21.19;46.53;99854.28;5022146;28;20034;-75
2023/11/01 11:17:06;;;;;;;4.40;2.00;;;;;;;21.14;46.67;99843.50;5022375;28;20502;-74
2023/11/01 11:20:11;;;;;;;2.45;1.70;;;;;;;21.29;46.38;99845.88;5024396;28;20067;-76
2023/11/01 11:23:01;;;;;;;3.28;1.75;;;;;;;21.31;46.59;99849.13;4975731;28;20050;-76
2023/11/01 11:25:38;;;;;;;2.00;1.75;;;;;;;21.29;46.63;99849.34;5025081;28;20244;-75